PWSweather.com
Personal Weather Stations
Station Observations
WESTON01
WestonSuperMareGB BS22 8RT

WestonSuperMareGB BS22 8RT

Lat: 51.351508, Lon: -2.933373

Elevation: 15

Station Type: Fine Offset WH1080

http://www.westonweather.co.uk

High Low Average
Temperature 85.2°F29.6°C 55.8°F13.2°C 71.4°F21.9°C
Dew Point 61.2°F16.2°C 50.9°F10.5°C 56.6°F13.7°C
Winds 8.4 mph 13.5 kmh 0.3 mph 0.5 kmh 5.0 mph S8.0 kmh S
Wind Gusts 16.4 mph26.4 kmh 1.5 mph2.4 kmh 8.0 mph12.9 kmh
Humidity 88% 38% 63%
Pressure 30.23 in1023.7 mb 30.05 in1017.6 mb -
Precipitation 0.00 in0.0 mm - -
Hour Temp Dew Point Humidity Winds Wind Gusts Pressure Precip Precip Rate Daily Precip Total
12:00 AM 62.2°F16.8°C 57.9°F14.4°C 86% 1.8 mph ENE2.9 kmh ENE 3.3 mph5.3 kmh 30.23 in1023.7 mb 0.00 in0.0 mm 0.00 in0.0 mm 0.00 in0.0 mm
12:05 AM 62.0°F16.7°C 58.1°F14.5°C 87% 2.1 mph ENE3.4 kmh ENE 2.7 mph4.3 kmh 30.23 in1023.7 mb 0.00 in0.0 mm 0.00 in0.0 mm 0.00 in0.0 mm
12:10 AM 62.0°F16.7°C 58.1°F14.5°C 87% 2.3 mph ENE3.7 kmh ENE 3.9 mph6.3 kmh 30.23 in1023.7 mb 0.00 in0.0 mm 0.00 in0.0 mm 0.00 in0.0 mm
12:15 AM 61.8°F16.6°C 57.9°F14.4°C 87% 2.3 mph E3.7 kmh E 3.9 mph6.3 kmh 30.23 in1023.7 mb 0.00 in0.0 mm 0.00 in0.0 mm 0.00 in0.0 mm
12:20 AM 61.6°F16.4°C 57.7°F14.3°C 87% 2.9 mph E4.7 kmh E 6.2 mph10.0 kmh 30.23 in1023.7 mb 0.00 in0.0 mm 0.00 in0.0 mm 0.00 in0.0 mm
12:25 AM 61.4°F16.3°C 57.5°F14.2°C 87% 2.8 mph ENE4.5 kmh ENE 6.2 mph10.0 kmh 30.23 in1023.7 mb 0.00 in0.0 mm 0.00 in0.0 mm 0.00 in0.0 mm
12:30 AM 61.3°F16.3°C 57.3°F14.1°C 87% 2.0 mph E3.2 kmh E 3.6 mph5.8 kmh 30.20 in1022.7 mb 0.00 in0.0 mm 0.00 in0.0 mm 0.00 in0.0 mm
12:35 AM 61.3°F16.3°C 57.3°F14.1°C 87% 2.5 mph ENE4.0 kmh ENE 3.9 mph6.3 kmh 30.20 in1022.7 mb 0.00 in0.0 mm 0.00 in0.0 mm 0.00 in0.0 mm
12:40 AM 61.1°F16.2°C 57.2°F14.0°C 87% 2.6 mph E4.2 kmh E 4.2 mph6.8 kmh 30.20 in1022.7 mb 0.00 in0.0 mm 0.00 in0.0 mm 0.00 in0.0 mm
12:45 AM 61.1°F16.2°C 57.2°F14.0°C 87% 2.5 mph E4.0 kmh E 4.2 mph6.8 kmh 30.20 in1022.7 mb 0.00 in0.0 mm 0.00 in0.0 mm 0.00 in0.0 mm
12:50 AM 60.9°F16.1°C 57.3°F14.1°C 88% 2.4 mph E3.9 kmh E 4.8 mph7.7 kmh 30.20 in1022.7 mb 0.00 in0.0 mm 0.00 in0.0 mm 0.00 in0.0 mm
12:55 AM 60.9°F16.1°C 57.3°F14.1°C 88% 1.8 mph E2.9 kmh E 4.8 mph7.7 kmh 30.20 in1022.7 mb 0.00 in0.0 mm 0.00 in0.0 mm 0.00 in0.0 mm
01:00 AM 60.7°F15.9°C 57.1°F13.9°C 88% 1.1 mph E1.8 kmh E 3.9 mph6.3 kmh 30.20 in1022.7 mb 0.00 in0.0 mm 0.00 in0.0 mm 0.00 in0.0 mm
01:05 AM 60.7°F15.9°C 57.1°F13.9°C 88% 1.5 mph E2.4 kmh E 4.2 mph6.8 kmh 30.20 in1022.7 mb 0.00 in0.0 mm 0.00 in0.0 mm 0.00 in0.0 mm
01:10 AM 60.5°F15.8°C 57.0°F13.9°C 88% 3.0 mph ENE4.8 kmh ENE 4.2 mph6.8 kmh 30.20 in1022.7 mb 0.00 in0.0 mm 0.00 in0.0 mm 0.00 in0.0 mm
01:15 AM 60.3°F15.7°C 56.5°F13.6°C 87% 2.9 mph E4.7 kmh E 4.2 mph6.8 kmh 30.20 in1022.7 mb 0.00 in0.0 mm 0.00 in0.0 mm 0.00 in0.0 mm
01:20 AM 60.2°F15.7°C 56.3°F13.5°C 87% 3.0 mph E4.8 kmh E 5.1 mph8.2 kmh 30.20 in1022.7 mb 0.00 in0.0 mm 0.00 in0.0 mm 0.00 in0.0 mm
01:25 AM 60.2°F15.7°C 56.3°F13.5°C 87% 3.6 mph ENE5.8 kmh ENE 5.1 mph8.2 kmh 30.20 in1022.7 mb 0.00 in0.0 mm 0.00 in0.0 mm 0.00 in0.0 mm
01:30 AM 60.2°F15.7°C 56.0°F13.3°C 86% 4.0 mph ENE6.4 kmh ENE 5.1 mph8.2 kmh 30.20 in1022.7 mb 0.00 in0.0 mm 0.00 in0.0 mm 0.00 in0.0 mm
01:35 AM 60.0°F15.6°C 55.8°F13.2°C 86% 4.1 mph ENE6.6 kmh ENE 5.1 mph8.2 kmh 30.20 in1022.7 mb 0.00 in0.0 mm 0.00 in0.0 mm 0.00 in0.0 mm
01:40 AM 60.0°F15.6°C 55.5°F13.1°C 85% 4.0 mph ENE6.4 kmh ENE 6.5 mph10.5 kmh 30.20 in1022.7 mb 0.00 in0.0 mm 0.00 in0.0 mm 0.00 in0.0 mm
01:45 AM 60.0°F15.6°C 55.5°F13.1°C 85% 3.7 mph ENE6.0 kmh ENE 6.5 mph10.5 kmh 30.20 in1022.7 mb 0.00 in0.0 mm 0.00 in0.0 mm 0.00 in0.0 mm
01:50 AM 60.0°F15.6°C 55.1°F12.8°C 84% 4.2 mph ENE6.8 kmh ENE 6.5 mph10.5 kmh 30.20 in1022.7 mb 0.00 in0.0 mm 0.00 in0.0 mm 0.00 in0.0 mm
01:55 AM 60.0°F15.6°C 55.1°F12.8°C 84% 4.7 mph NE7.6 kmh NE 5.7 mph9.2 kmh 30.20 in1022.7 mb 0.00 in0.0 mm 0.00 in0.0 mm 0.00 in0.0 mm
02:00 AM 60.0°F15.6°C 54.8°F12.7°C 83% 5.1 mph NE8.2 kmh NE 7.4 mph11.9 kmh 30.20 in1022.7 mb 0.00 in0.0 mm 0.00 in0.0 mm 0.00 in0.0 mm
02:05 AM 60.0°F15.6°C 54.8°F12.7°C 83% 5.8 mph NE9.3 kmh NE 7.4 mph11.9 kmh 30.20 in1022.7 mb 0.00 in0.0 mm 0.00 in0.0 mm 0.00 in0.0 mm
02:10 AM 60.0°F15.6°C 54.8°F12.7°C 83% 5.4 mph NE8.7 kmh NE 7.4 mph11.9 kmh 30.20 in1022.7 mb 0.00 in0.0 mm 0.00 in0.0 mm 0.00 in0.0 mm
02:15 AM 59.8°F15.4°C 54.6°F12.6°C 83% 4.6 mph ENE7.4 kmh ENE 7.4 mph11.9 kmh 30.20 in1022.7 mb 0.00 in0.0 mm 0.00 in0.0 mm 0.00 in0.0 mm
02:20 AM 59.8°F15.4°C 54.3°F12.4°C 82% 4.5 mph ENE7.2 kmh ENE 6.2 mph10.0 kmh 30.20 in1022.7 mb 0.00 in0.0 mm 0.00 in0.0 mm 0.00 in0.0 mm
02:25 AM 59.8°F15.4°C 54.3°F12.4°C 82% 4.9 mph NE7.9 kmh NE 7.4 mph11.9 kmh 30.20 in1022.7 mb 0.00 in0.0 mm 0.00 in0.0 mm 0.00 in0.0 mm
02:30 AM 59.8°F15.4°C 54.3°F12.4°C 82% 5.1 mph NE8.2 kmh NE 7.4 mph11.9 kmh 30.20 in1022.7 mb 0.00 in0.0 mm 0.00 in0.0 mm 0.00 in0.0 mm
02:35 AM 59.8°F15.4°C 54.3°F12.4°C 82% 4.2 mph ENE6.8 kmh ENE 7.4 mph11.9 kmh 30.20 in1022.7 mb 0.00 in0.0 mm 0.00 in0.0 mm 0.00 in0.0 mm
02:40 AM 59.6°F15.3°C 53.8°F12.1°C 81% 4.1 mph ENE6.6 kmh ENE 6.5 mph10.5 kmh 30.20 in1022.7 mb 0.00 in0.0 mm 0.00 in0.0 mm 0.00 in0.0 mm
02:45 AM 59.6°F15.3°C 53.8°F12.1°C 81% 4.8 mph ENE7.7 kmh ENE 6.5 mph10.5 kmh 30.20 in1022.7 mb 0.00 in0.0 mm 0.00 in0.0 mm 0.00 in0.0 mm
02:50 AM 59.5°F15.3°C 53.6°F12.0°C 81% 4.1 mph ENE6.6 kmh ENE 5.7 mph9.2 kmh 30.20 in1022.7 mb 0.00 in0.0 mm 0.00 in0.0 mm 0.00 in0.0 mm
02:55 AM 59.3°F15.2°C 53.4°F11.9°C 81% 2.2 mph ENE3.5 kmh ENE 5.7 mph9.2 kmh 30.20 in1022.7 mb 0.00 in0.0 mm 0.00 in0.0 mm 0.00 in0.0 mm
03:00 AM 59.1°F15.1°C 53.3°F11.8°C 81% 1.0 mph E1.6 kmh E 3.3 mph5.3 kmh 30.20 in1022.7 mb 0.00 in0.0 mm 0.00 in0.0 mm 0.00 in0.0 mm
03:05 AM 58.9°F14.9°C 53.1°F11.7°C 81% 1.2 mph E1.9 kmh E 1.8 mph2.9 kmh 30.20 in1022.7 mb 0.00 in0.0 mm 0.00 in0.0 mm 0.00 in0.0 mm
03:10 AM 58.7°F14.8°C 52.9°F11.6°C 81% 1.4 mph E2.3 kmh E 2.7 mph4.3 kmh 30.20 in1022.7 mb 0.00 in0.0 mm 0.00 in0.0 mm 0.00 in0.0 mm
03:15 AM 58.5°F14.7°C 52.7°F11.5°C 81% 2.1 mph ENE3.4 kmh ENE 3.6 mph5.8 kmh 30.20 in1022.7 mb 0.00 in0.0 mm 0.00 in0.0 mm 0.00 in0.0 mm
03:20 AM 58.2°F14.6°C 52.4°F11.3°C 81% 2.4 mph ENE3.9 kmh ENE 3.6 mph5.8 kmh 30.20 in1022.7 mb 0.00 in0.0 mm 0.00 in0.0 mm 0.00 in0.0 mm
03:25 AM 58.2°F14.6°C 52.4°F11.3°C 81% 2.1 mph E3.4 kmh E 3.6 mph5.8 kmh 30.20 in1022.7 mb 0.00 in0.0 mm 0.00 in0.0 mm 0.00 in0.0 mm
03:30 AM 58.0°F14.4°C 52.2°F11.2°C 81% 2.7 mph E4.3 kmh E 3.6 mph5.8 kmh 30.20 in1022.7 mb 0.00 in0.0 mm 0.00 in0.0 mm 0.00 in0.0 mm
03:35 AM 57.8°F14.3°C 52.0°F11.1°C 81% 2.7 mph E4.3 kmh E 3.6 mph5.8 kmh 30.20 in1022.7 mb 0.00 in0.0 mm 0.00 in0.0 mm 0.00 in0.0 mm
03:40 AM 57.7°F14.3°C 52.2°F11.2°C 82% 1.8 mph E2.9 kmh E 3.3 mph5.3 kmh 30.20 in1022.7 mb 0.00 in0.0 mm 0.00 in0.0 mm 0.00 in0.0 mm
03:45 AM 57.7°F14.3°C 52.2°F11.2°C 82% 1.2 mph E1.9 kmh E 3.3 mph5.3 kmh 30.20 in1022.7 mb 0.00 in0.0 mm 0.00 in0.0 mm 0.00 in0.0 mm
03:50 AM 57.5°F14.2°C 52.0°F11.1°C 82% 0.7 mph E1.1 kmh E 3.3 mph5.3 kmh 30.20 in1022.7 mb 0.00 in0.0 mm 0.00 in0.0 mm 0.00 in0.0 mm
03:55 AM 57.3°F14.1°C 51.8°F11.0°C 82% 1.0 mph E1.6 kmh E 3.3 mph5.3 kmh 30.20 in1022.7 mb 0.00 in0.0 mm 0.00 in0.0 mm 0.00 in0.0 mm
04:00 AM 57.1°F13.9°C 51.7°F10.9°C 82% 0.9 mph E1.4 kmh E 3.3 mph5.3 kmh 30.20 in1022.7 mb 0.00 in0.0 mm 0.00 in0.0 mm 0.00 in0.0 mm
04:05 AM 56.9°F13.8°C 51.5°F10.8°C 82% 0.4 mph E0.6 kmh E 1.5 mph2.4 kmh 30.20 in1022.7 mb 0.00 in0.0 mm 0.00 in0.0 mm 0.00 in0.0 mm
04:10 AM 56.8°F13.8°C 51.3°F10.7°C 82% 1.3 mph NE2.1 kmh NE 3.0 mph4.8 kmh 30.20 in1022.7 mb 0.00 in0.0 mm 0.00 in0.0 mm 0.00 in0.0 mm
04:15 AM 56.6°F13.7°C 51.1°F10.6°C 82% 1.8 mph NE2.9 kmh NE 3.0 mph4.8 kmh 30.20 in1022.7 mb 0.00 in0.0 mm 0.00 in0.0 mm 0.00 in0.0 mm
04:20 AM 56.6°F13.7°C 51.1°F10.6°C 82% 0.7 mph NE1.1 kmh NE 2.7 mph4.3 kmh 30.20 in1022.7 mb 0.00 in0.0 mm 0.00 in0.0 mm 0.00 in0.0 mm
04:25 AM 56.4°F13.6°C 51.3°F10.7°C 83% 1.0 mph NE1.6 kmh NE 3.0 mph4.8 kmh 30.20 in1022.7 mb 0.00 in0.0 mm 0.00 in0.0 mm 0.00 in0.0 mm
04:35 AM 56.0°F13.3°C 50.9°F10.5°C 83% 2.0 mph NE3.2 kmh NE 3.0 mph4.8 kmh 30.20 in1022.7 mb 0.00 in0.0 mm 0.00 in0.0 mm 0.00 in0.0 mm
04:40 AM 56.0°F13.3°C 50.9°F10.5°C 83% 0.6 mph NE1.0 kmh NE 2.1 mph3.4 kmh 30.20 in1022.7 mb 0.00 in0.0 mm 0.00 in0.0 mm 0.00 in0.0 mm
04:45 AM 55.8°F13.2°C 51.1°F10.6°C 84% 0.3 mph NE0.5 kmh NE 1.8 mph2.9 kmh 30.20 in1022.7 mb 0.00 in0.0 mm 0.00 in0.0 mm 0.00 in0.0 mm
04:50 AM 55.8°F13.2°C 51.1°F10.6°C 84% 0.6 mph ENE1.0 kmh ENE 1.8 mph2.9 kmh 30.20 in1022.7 mb 0.00 in0.0 mm 0.00 in0.0 mm 0.00 in0.0 mm
04:55 AM 55.8°F13.2°C 51.1°F10.6°C 84% 1.4 mph ENE2.3 kmh ENE 3.3 mph5.3 kmh 30.20 in1022.7 mb 0.00 in0.0 mm 0.00 in0.0 mm 0.00 in0.0 mm
05:00 AM 55.8°F13.2°C 51.1°F10.6°C 84% 2.4 mph NE3.9 kmh NE 3.9 mph6.3 kmh 30.20 in1022.7 mb 0.00 in0.0 mm 0.00 in0.0 mm 0.00 in0.0 mm
05:05 AM 55.8°F13.2°C 51.1°F10.6°C 84% 2.6 mph NE4.2 kmh NE 3.9 mph6.3 kmh 30.20 in1022.7 mb 0.00 in0.0 mm 0.00 in0.0 mm 0.00 in0.0 mm
05:10 AM 56.0°F13.3°C 51.3°F10.7°C 84% 2.2 mph NE3.5 kmh NE 3.9 mph6.3 kmh 30.20 in1022.7 mb 0.00 in0.0 mm 0.00 in0.0 mm 0.00 in0.0 mm
05:15 AM 56.0°F13.3°C 51.3°F10.7°C 84% 1.9 mph ENE3.1 kmh ENE 3.6 mph5.8 kmh 30.20 in1022.7 mb 0.00 in0.0 mm 0.00 in0.0 mm 0.00 in0.0 mm
05:20 AM 56.0°F13.3°C 51.3°F10.7°C 84% 1.8 mph ENE2.9 kmh ENE 3.6 mph5.8 kmh 30.20 in1022.7 mb 0.00 in0.0 mm 0.00 in0.0 mm 0.00 in0.0 mm
05:25 AM 56.2°F13.4°C 51.4°F10.8°C 84% 1.6 mph ENE2.6 kmh ENE 3.0 mph4.8 kmh 30.20 in1022.7 mb 0.00 in0.0 mm 0.00 in0.0 mm 0.00 in0.0 mm
05:30 AM 56.4°F13.6°C 51.9°F11.1°C 85% 1.6 mph ENE2.6 kmh ENE 3.0 mph4.8 kmh 30.20 in1022.7 mb 0.00 in0.0 mm 0.00 in0.0 mm 0.00 in0.0 mm
05:35 AM 56.8°F13.8°C 52.3°F11.3°C 85% 1.3 mph ENE2.1 kmh ENE 2.7 mph4.3 kmh 30.20 in1022.7 mb 0.00 in0.0 mm 0.00 in0.0 mm 0.00 in0.0 mm
05:40 AM 56.9°F13.8°C 52.5°F11.4°C 85% 1.2 mph NE1.9 kmh NE 4.2 mph6.8 kmh 30.20 in1022.7 mb 0.00 in0.0 mm 0.00 in0.0 mm 0.00 in0.0 mm
05:45 AM 57.3°F14.1°C 53.1°F11.7°C 86% 1.5 mph NE2.4 kmh NE 4.2 mph6.8 kmh 30.23 in1023.7 mb 0.00 in0.0 mm 0.00 in0.0 mm 0.00 in0.0 mm
05:50 AM 58.0°F14.4°C 53.8°F12.1°C 86% 2.2 mph E3.5 kmh E 3.9 mph6.3 kmh 30.23 in1023.7 mb 0.00 in0.0 mm 0.00 in0.0 mm 0.00 in0.0 mm
05:55 AM 58.9°F14.9°C 54.7°F12.6°C 86% 2.9 mph ENE4.7 kmh ENE 4.2 mph6.8 kmh 30.23 in1023.7 mb 0.00 in0.0 mm 0.00 in0.0 mm 0.00 in0.0 mm
06:00 AM 59.6°F15.3°C 55.1°F12.8°C 85% 3.1 mph E5.0 kmh E 4.5 mph7.2 kmh 30.20 in1022.7 mb 0.00 in0.0 mm 0.00 in0.0 mm 0.00 in0.0 mm
06:05 AM 60.5°F15.8°C 55.7°F13.2°C 84% 2.9 mph E4.7 kmh E 4.5 mph7.2 kmh 30.20 in1022.7 mb 0.00 in0.0 mm 0.00 in0.0 mm 0.00 in0.0 mm
06:10 AM 61.3°F16.3°C 56.0°F13.3°C 83% 3.4 mph E5.5 kmh E 5.1 mph8.2 kmh 30.20 in1022.7 mb 0.00 in0.0 mm 0.00 in0.0 mm 0.00 in0.0 mm
06:15 AM 61.8°F16.6°C 56.2°F13.4°C 82% 4.3 mph E6.9 kmh E 5.4 mph8.7 kmh 30.23 in1023.7 mb 0.00 in0.0 mm 0.00 in0.0 mm 0.00 in0.0 mm
06:20 AM 61.8°F16.6°C 56.2°F13.4°C 82% 4.2 mph E6.8 kmh E 5.7 mph9.2 kmh 30.23 in1023.7 mb 0.00 in0.0 mm 0.00 in0.0 mm 0.00 in0.0 mm
06:25 AM 62.9°F17.2°C 56.9°F13.8°C 81% 3.8 mph ENE6.1 kmh ENE 5.7 mph9.2 kmh 30.23 in1023.7 mb 0.00 in0.0 mm 0.00 in0.0 mm 0.00 in0.0 mm
06:50 AM 64.8°F18.2°C 57.1°F13.9°C 76% 4.0 mph ENE6.4 kmh ENE 5.1 mph8.2 kmh 30.23 in1023.7 mb 0.00 in0.0 mm 0.00 in0.0 mm 0.00 in0.0 mm
06:55 AM 65.0°F18.3°C 56.9°F13.8°C 75% 4.1 mph ENE6.6 kmh ENE 6.5 mph10.5 kmh 30.23 in1023.7 mb 0.00 in0.0 mm 0.00 in0.0 mm 0.00 in0.0 mm
07:00 AM 65.4°F18.6°C 56.9°F13.8°C 74% 4.3 mph E6.9 kmh E 6.5 mph10.5 kmh 30.23 in1023.7 mb 0.00 in0.0 mm 0.00 in0.0 mm 0.00 in0.0 mm
07:05 AM 65.9°F18.8°C 57.4°F14.1°C 74% 3.6 mph E5.8 kmh E 6.5 mph10.5 kmh 30.23 in1023.7 mb 0.00 in0.0 mm 0.00 in0.0 mm 0.00 in0.0 mm
07:10 AM 66.3°F19.1°C 57.4°F14.1°C 73% 2.7 mph E4.3 kmh E 5.1 mph8.2 kmh 30.23 in1023.7 mb 0.00 in0.0 mm 0.00 in0.0 mm 0.00 in0.0 mm
07:15 AM 66.5°F19.2°C 57.2°F14.0°C 72% 2.7 mph E4.3 kmh E 5.1 mph8.2 kmh 30.23 in1023.7 mb 0.00 in0.0 mm 0.00 in0.0 mm 0.00 in0.0 mm
07:20 AM 66.8°F19.3°C 57.1°F13.9°C 71% 2.7 mph E4.3 kmh E 3.9 mph6.3 kmh 30.23 in1023.7 mb 0.00 in0.0 mm 0.00 in0.0 mm 0.00 in0.0 mm
07:25 AM 66.8°F19.3°C 57.1°F13.9°C 71% 2.5 mph E4.0 kmh E 3.9 mph6.3 kmh 30.23 in1023.7 mb 0.00 in0.0 mm 0.00 in0.0 mm 0.00 in0.0 mm
07:30 AM 67.2°F19.6°C 57.1°F13.9°C 70% 2.6 mph E4.2 kmh E 4.5 mph7.2 kmh 30.23 in1023.7 mb 0.00 in0.0 mm 0.00 in0.0 mm 0.00 in0.0 mm
07:35 AM 67.2°F19.6°C 57.1°F13.9°C 70% 3.2 mph E5.1 kmh E 4.5 mph7.2 kmh 30.23 in1023.7 mb 0.00 in0.0 mm 0.00 in0.0 mm 0.00 in0.0 mm
07:40 AM 67.2°F19.6°C 57.1°F13.9°C 70% 3.3 mph E5.3 kmh E 5.4 mph8.7 kmh 30.23 in1023.7 mb 0.00 in0.0 mm 0.00 in0.0 mm 0.00 in0.0 mm
07:45 AM 67.4°F19.7°C 57.2°F14.0°C 70% 3.6 mph E5.8 kmh E 5.4 mph8.7 kmh 30.23 in1023.7 mb 0.00 in0.0 mm 0.00 in0.0 mm 0.00 in0.0 mm
07:50 AM 67.6°F19.8°C 57.4°F14.1°C 70% 2.7 mph E4.3 kmh E 4.8 mph7.7 kmh 30.23 in1023.7 mb 0.00 in0.0 mm 0.00 in0.0 mm 0.00 in0.0 mm
07:55 AM 67.9°F19.9°C 57.8°F14.3°C 70% 2.2 mph ENE3.5 kmh ENE 5.1 mph8.2 kmh 30.23 in1023.7 mb 0.00 in0.0 mm 0.00 in0.0 mm 0.00 in0.0 mm
08:00 AM 68.6°F20.3°C 58.0°F14.4°C 69% 3.1 mph E5.0 kmh E 5.1 mph8.2 kmh 30.23 in1023.7 mb 0.00 in0.0 mm 0.00 in0.0 mm 0.00 in0.0 mm
08:05 AM 69.2°F20.7°C 58.6°F14.8°C 69% 2.6 mph E4.2 kmh E 5.4 mph8.7 kmh 30.23 in1023.7 mb 0.00 in0.0 mm 0.00 in0.0 mm 0.00 in0.0 mm
08:10 AM 69.5°F20.8°C 58.9°F14.9°C 69% 2.5 mph E4.0 kmh E 5.4 mph8.7 kmh 30.23 in1023.7 mb 0.00 in0.0 mm 0.00 in0.0 mm 0.00 in0.0 mm
08:15 AM 69.7°F20.9°C 59.1°F15.1°C 69% 1.9 mph SE3.1 kmh SE 4.5 mph7.2 kmh 30.23 in1023.7 mb 0.00 in0.0 mm 0.00 in0.0 mm 0.00 in0.0 mm
08:20 AM 70.4°F21.3°C 59.4°F15.2°C 68% 1.6 mph SE2.6 kmh SE 3.9 mph6.3 kmh 30.23 in1023.7 mb 0.00 in0.0 mm 0.00 in0.0 mm 0.00 in0.0 mm
08:25 AM 71.0°F21.7°C 59.5°F15.3°C 67% 1.7 mph S2.7 kmh S 3.6 mph5.8 kmh 30.23 in1023.7 mb 0.00 in0.0 mm 0.00 in0.0 mm 0.00 in0.0 mm
08:30 AM 71.3°F21.8°C 59.8°F15.4°C 67% 2.2 mph S3.5 kmh S 5.7 mph9.2 kmh 30.23 in1023.7 mb 0.00 in0.0 mm 0.00 in0.0 mm 0.00 in0.0 mm
08:35 AM 72.1°F22.3°C 60.5°F15.8°C 67% 2.5 mph SSE4.0 kmh SSE 5.7 mph9.2 kmh 30.23 in1023.7 mb 0.00 in0.0 mm 0.00 in0.0 mm 0.00 in0.0 mm
08:40 AM 72.9°F22.7°C 60.5°F15.8°C 65% 3.4 mph S5.5 kmh S 5.4 mph8.7 kmh 30.23 in1023.7 mb 0.00 in0.0 mm 0.00 in0.0 mm 0.00 in0.0 mm
08:45 AM 73.1°F22.8°C 60.7°F15.9°C 65% 4.1 mph SSW6.6 kmh SSW 5.4 mph8.7 kmh 30.23 in1023.7 mb 0.00 in0.0 mm 0.00 in0.0 mm 0.00 in0.0 mm
09:00 AM 74.0°F23.3°C 60.2°F15.7°C 62% 7.7 mph SW12.4 kmh SW 13.1 mph21.1 kmh 30.23 in1023.7 mb 0.00 in0.0 mm 0.00 in0.0 mm 0.00 in0.0 mm
09:05 AM 74.2°F23.4°C 59.9°F15.5°C 61% 6.4 mph SW10.3 kmh SW 13.1 mph21.1 kmh 30.23 in1023.7 mb 0.00 in0.0 mm 0.00 in0.0 mm 0.00 in0.0 mm
09:10 AM 74.6°F23.7°C 60.2°F15.7°C 61% 5.1 mph SSW8.2 kmh SSW 7.7 mph12.4 kmh 30.20 in1022.7 mb 0.00 in0.0 mm 0.00 in0.0 mm 0.00 in0.0 mm
09:15 AM 74.6°F23.7°C 59.8°F15.4°C 60% 6.8 mph SW10.9 kmh SW 10.7 mph17.2 kmh 30.20 in1022.7 mb 0.00 in0.0 mm 0.00 in0.0 mm 0.00 in0.0 mm
09:20 AM 74.8°F23.8°C 60.4°F15.8°C 61% 7.7 mph SSW12.4 kmh SSW 10.7 mph17.2 kmh 30.20 in1022.7 mb 0.00 in0.0 mm 0.00 in0.0 mm 0.00 in0.0 mm
09:25 AM 74.8°F23.8°C 59.9°F15.5°C 60% 7.1 mph S11.4 kmh S 8.6 mph13.8 kmh 30.20 in1022.7 mb 0.00 in0.0 mm 0.00 in0.0 mm 0.00 in0.0 mm
09:30 AM 74.8°F23.8°C 59.9°F15.5°C 60% 5.2 mph SSW8.4 kmh SSW 8.3 mph13.4 kmh 30.20 in1022.7 mb 0.00 in0.0 mm 0.00 in0.0 mm 0.00 in0.0 mm
09:35 AM 75.5°F24.2°C 60.6°F15.9°C 60% 5.3 mph S8.5 kmh S 11.6 mph18.7 kmh 30.20 in1022.7 mb 0.00 in0.0 mm 0.00 in0.0 mm 0.00 in0.0 mm
09:40 AM 75.7°F24.3°C 60.8°F16.0°C 60% 6.1 mph S9.8 kmh S 11.6 mph18.7 kmh 30.20 in1022.7 mb 0.00 in0.0 mm 0.00 in0.0 mm 0.00 in0.0 mm
09:45 AM 75.7°F24.3°C 60.8°F16.0°C 60% 5.5 mph S8.9 kmh S 8.3 mph13.4 kmh 30.20 in1022.7 mb 0.00 in0.0 mm 0.00 in0.0 mm 0.00 in0.0 mm
09:50 AM 76.4°F24.7°C 60.5°F15.8°C 58% 4.5 mph S7.2 kmh S 7.1 mph11.4 kmh 30.20 in1022.7 mb 0.00 in0.0 mm 0.00 in0.0 mm 0.00 in0.0 mm
09:55 AM 76.7°F24.8°C 60.8°F16.0°C 58% 4.4 mph S7.1 kmh S 7.4 mph11.9 kmh 30.20 in1022.7 mb 0.00 in0.0 mm 0.00 in0.0 mm 0.00 in0.0 mm
10:00 AM 77.1°F25.1°C 60.7°F15.9°C 57% 5.8 mph SSW9.3 kmh SSW 8.3 mph13.4 kmh 30.20 in1022.7 mb 0.00 in0.0 mm 0.00 in0.0 mm 0.00 in0.0 mm
10:05 AM 77.3°F25.2°C 60.9°F16.1°C 57% 5.7 mph SW9.2 kmh SW 8.3 mph13.4 kmh 30.20 in1022.7 mb 0.00 in0.0 mm 0.00 in0.0 mm 0.00 in0.0 mm
10:10 AM 77.6°F25.3°C 61.2°F16.2°C 57% 5.2 mph SW8.4 kmh SW 8.3 mph13.4 kmh 30.20 in1022.7 mb 0.00 in0.0 mm 0.00 in0.0 mm 0.00 in0.0 mm
10:15 AM 77.8°F25.4°C 60.9°F16.1°C 56% 5.1 mph SW8.2 kmh SW 7.1 mph11.4 kmh 30.20 in1022.7 mb 0.00 in0.0 mm 0.00 in0.0 mm 0.00 in0.0 mm
10:20 AM 78.0°F25.6°C 60.5°F15.8°C 55% 5.1 mph SSW8.2 kmh SSW 7.7 mph12.4 kmh 30.20 in1022.7 mb 0.00 in0.0 mm 0.00 in0.0 mm 0.00 in0.0 mm
10:25 AM 78.5°F25.8°C 61.0°F16.1°C 55% 5.3 mph S8.5 kmh S 8.6 mph13.8 kmh 30.20 in1022.7 mb 0.00 in0.0 mm 0.00 in0.0 mm 0.00 in0.0 mm
10:30 AM 78.7°F25.9°C 60.7°F15.9°C 54% 4.2 mph S6.8 kmh S 8.6 mph13.8 kmh 30.20 in1022.7 mb 0.00 in0.0 mm 0.00 in0.0 mm 0.00 in0.0 mm
10:35 AM 78.9°F26.1°C 60.8°F16.0°C 54% 4.4 mph S7.1 kmh S 10.1 mph16.3 kmh 30.20 in1022.7 mb 0.00 in0.0 mm 0.00 in0.0 mm 0.00 in0.0 mm
10:40 AM 79.4°F26.3°C 60.8°F16.0°C 53% 5.7 mph S9.2 kmh S 10.1 mph16.3 kmh 30.20 in1022.7 mb 0.00 in0.0 mm 0.00 in0.0 mm 0.00 in0.0 mm
10:45 AM 79.6°F26.4°C 60.4°F15.8°C 52% 6.3 mph SSW10.1 kmh SSW 11.6 mph18.7 kmh 30.20 in1022.7 mb 0.00 in0.0 mm 0.00 in0.0 mm 0.00 in0.0 mm
10:50 AM 79.4°F26.3°C 60.3°F15.7°C 52% 6.6 mph SW10.6 kmh SW 12.8 mph20.6 kmh 30.20 in1022.7 mb 0.00 in0.0 mm 0.00 in0.0 mm 0.00 in0.0 mm
10:55 AM 79.4°F26.3°C 60.3°F15.7°C 52% 6.4 mph SW10.3 kmh SW 13.1 mph21.1 kmh 30.20 in1022.7 mb 0.00 in0.0 mm 0.00 in0.0 mm 0.00 in0.0 mm
11:00 AM 79.4°F26.3°C 59.7°F15.4°C 51% 5.8 mph SW9.3 kmh SW 13.1 mph21.1 kmh 30.17 in1021.7 mb 0.00 in0.0 mm 0.00 in0.0 mm 0.00 in0.0 mm
11:05 AM 79.4°F26.3°C 59.7°F15.4°C 51% 6.7 mph SSW10.8 kmh SSW 9.5 mph15.3 kmh 30.17 in1021.7 mb 0.00 in0.0 mm 0.00 in0.0 mm 0.00 in0.0 mm
11:10 AM 79.8°F26.6°C 60.1°F15.6°C 51% 6.7 mph SSW10.8 kmh SSW 10.4 mph16.7 kmh 30.17 in1021.7 mb 0.00 in0.0 mm 0.00 in0.0 mm 0.00 in0.0 mm
11:15 AM 80.0°F26.7°C 60.2°F15.7°C 51% 6.7 mph SSW10.8 kmh SSW 11.6 mph18.7 kmh 30.17 in1021.7 mb 0.00 in0.0 mm 0.00 in0.0 mm 0.00 in0.0 mm
11:20 AM 80.3°F26.8°C 60.5°F15.8°C 51% 8.2 mph SSW13.2 kmh SSW 11.6 mph18.7 kmh 30.17 in1021.7 mb 0.00 in0.0 mm 0.00 in0.0 mm 0.00 in0.0 mm
11:25 AM 80.5°F26.9°C 60.2°F15.7°C 50% 6.5 mph SSW10.5 kmh SSW 11.3 mph18.2 kmh 30.17 in1021.7 mb 0.00 in0.0 mm 0.00 in0.0 mm 0.00 in0.0 mm
11:30 AM 80.9°F27.2°C 60.5°F15.8°C 50% 4.4 mph SW7.1 kmh SW 9.8 mph15.8 kmh 30.17 in1021.7 mb 0.00 in0.0 mm 0.00 in0.0 mm 0.00 in0.0 mm
11:35 AM 81.1°F27.3°C 60.1°F15.6°C 49% 5.0 mph SSW8.0 kmh SSW 10.7 mph17.2 kmh 30.17 in1021.7 mb 0.00 in0.0 mm 0.00 in0.0 mm 0.00 in0.0 mm
11:40 AM 81.6°F27.6°C 60.6°F15.9°C 49% 6.0 mph SSW9.7 kmh SSW 10.7 mph17.2 kmh 30.17 in1021.7 mb 0.00 in0.0 mm 0.00 in0.0 mm 0.00 in0.0 mm
11:45 AM 81.6°F27.6°C 60.6°F15.9°C 49% 5.5 mph SSW8.9 kmh SSW 8.3 mph13.4 kmh 30.17 in1021.7 mb 0.00 in0.0 mm 0.00 in0.0 mm 0.00 in0.0 mm
11:50 AM 81.9°F27.7°C 60.3°F15.7°C 48% 6.2 mph S10.0 kmh S 10.7 mph17.2 kmh 30.17 in1021.7 mb 0.00 in0.0 mm 0.00 in0.0 mm 0.00 in0.0 mm
11:55 AM 81.9°F27.7°C 59.7°F15.4°C 47% 7.0 mph S11.3 kmh S 10.7 mph17.2 kmh 30.17 in1021.7 mb 0.00 in0.0 mm 0.00 in0.0 mm 0.00 in0.0 mm
12:00 PM 81.8°F27.7°C 59.6°F15.3°C 47% 6.5 mph S10.5 kmh S 10.1 mph16.3 kmh 30.14 in1020.7 mb 0.00 in0.0 mm 0.00 in0.0 mm 0.00 in0.0 mm
12:05 PM 81.8°F27.7°C 59.6°F15.3°C 47% 7.6 mph SSW12.2 kmh SSW 13.1 mph21.1 kmh 30.14 in1020.7 mb 0.00 in0.0 mm 0.00 in0.0 mm 0.00 in0.0 mm
12:10 PM 81.9°F27.7°C 59.7°F15.4°C 47% 6.3 mph SW10.1 kmh SW 13.1 mph21.1 kmh 30.14 in1020.7 mb 0.00 in0.0 mm 0.00 in0.0 mm 0.00 in0.0 mm
12:15 PM 82.3°F27.9°C 59.5°F15.3°C 46% 5.6 mph SW9.0 kmh SW 8.0 mph12.9 kmh 30.14 in1020.7 mb 0.00 in0.0 mm 0.00 in0.0 mm 0.00 in0.0 mm
12:20 PM 82.3°F27.9°C 59.5°F15.3°C 46% 6.7 mph SW10.8 kmh SW 10.1 mph16.3 kmh 30.14 in1020.7 mb 0.00 in0.0 mm 0.00 in0.0 mm 0.00 in0.0 mm
12:25 PM 82.5°F28.1°C 59.0°F15.0°C 45% 7.7 mph SSW12.4 kmh SSW 10.4 mph16.7 kmh 30.14 in1020.7 mb 0.00 in0.0 mm 0.00 in0.0 mm 0.00 in0.0 mm
12:30 PM 83.0°F28.3°C 58.9°F14.9°C 44% 6.6 mph SW10.6 kmh SW 10.4 mph16.7 kmh 30.14 in1020.7 mb 0.00 in0.0 mm 0.00 in0.0 mm 0.00 in0.0 mm
12:35 PM 83.4°F28.6°C 59.2°F15.1°C 44% 4.9 mph SW7.9 kmh SW 7.4 mph11.9 kmh 30.14 in1020.7 mb 0.00 in0.0 mm 0.00 in0.0 mm 0.00 in0.0 mm
12:40 PM 83.8°F28.8°C 59.5°F15.3°C 44% 5.3 mph SW8.5 kmh SW 10.1 mph16.3 kmh 30.14 in1020.7 mb 0.00 in0.0 mm 0.00 in0.0 mm 0.00 in0.0 mm
12:45 PM 84.1°F28.9°C 59.8°F15.4°C 44% 6.9 mph S11.1 kmh S 10.1 mph16.3 kmh 30.14 in1020.7 mb 0.00 in0.0 mm 0.00 in0.0 mm 0.00 in0.0 mm
12:50 PM 84.1°F28.9°C 59.2°F15.1°C 43% 7.5 mph SSW12.1 kmh SSW 11.3 mph18.2 kmh 30.14 in1020.7 mb 0.00 in0.0 mm 0.00 in0.0 mm 0.00 in0.0 mm
12:55 PM 83.8°F28.8°C 58.9°F14.9°C 43% 6.8 mph WSW10.9 kmh WSW 11.3 mph18.2 kmh 30.14 in1020.7 mb 0.00 in0.0 mm 0.00 in0.0 mm 0.00 in0.0 mm
01:00 PM 84.1°F28.9°C 59.2°F15.1°C 43% 6.9 mph SW11.1 kmh SW 11.3 mph18.2 kmh 30.14 in1020.7 mb 0.00 in0.0 mm 0.00 in0.0 mm 0.00 in0.0 mm
01:05 PM 84.3°F29.1°C 59.4°F15.2°C 43% 6.3 mph SSW10.1 kmh SSW 9.5 mph15.3 kmh 30.14 in1020.7 mb 0.00 in0.0 mm 0.00 in0.0 mm 0.00 in0.0 mm
01:10 PM 84.1°F28.9°C 59.2°F15.1°C 43% 6.9 mph SW11.1 kmh SW 16.4 mph26.4 kmh 30.14 in1020.7 mb 0.00 in0.0 mm 0.00 in0.0 mm 0.00 in0.0 mm
01:15 PM 83.8°F28.8°C 58.2°F14.6°C 42% 7.7 mph SSW12.4 kmh SSW 16.4 mph26.4 kmh 30.14 in1020.7 mb 0.00 in0.0 mm 0.00 in0.0 mm 0.00 in0.0 mm
01:20 PM 83.9°F28.8°C 58.4°F14.7°C 42% 7.0 mph SW11.3 kmh SW 16.4 mph26.4 kmh 30.14 in1020.7 mb 0.00 in0.0 mm 0.00 in0.0 mm 0.00 in0.0 mm
01:25 PM 84.1°F28.9°C 58.5°F14.7°C 42% 6.8 mph WSW10.9 kmh WSW 9.8 mph15.8 kmh 30.14 in1020.7 mb 0.00 in0.0 mm 0.00 in0.0 mm 0.00 in0.0 mm
01:30 PM 84.5°F29.2°C 58.2°F14.6°C 41% 6.0 mph SW9.7 kmh SW 9.8 mph15.8 kmh 30.14 in1020.7 mb 0.00 in0.0 mm 0.00 in0.0 mm 0.00 in0.0 mm
01:35 PM 84.5°F29.2°C 58.2°F14.6°C 41% 5.5 mph SW8.9 kmh SW 9.8 mph15.8 kmh 30.14 in1020.7 mb 0.00 in0.0 mm 0.00 in0.0 mm 0.00 in0.0 mm
01:40 PM 84.1°F28.9°C 57.9°F14.4°C 41% 6.3 mph SSW10.1 kmh SSW 11.6 mph18.7 kmh 30.14 in1020.7 mb 0.00 in0.0 mm 0.00 in0.0 mm 0.00 in0.0 mm
01:45 PM 83.9°F28.8°C 57.7°F14.3°C 41% 7.1 mph SSW11.4 kmh SSW 11.6 mph18.7 kmh 30.14 in1020.7 mb 0.00 in0.0 mm 0.00 in0.0 mm 0.00 in0.0 mm
01:50 PM 84.3°F29.1°C 58.0°F14.4°C 41% 6.2 mph S10.0 kmh S 9.8 mph15.8 kmh 30.14 in1020.7 mb 0.00 in0.0 mm 0.00 in0.0 mm 0.00 in0.0 mm
01:55 PM 84.3°F29.1°C 58.0°F14.4°C 41% 5.6 mph S9.0 kmh S 13.1 mph21.1 kmh 30.14 in1020.7 mb 0.00 in0.0 mm 0.00 in0.0 mm 0.00 in0.0 mm
02:00 PM 83.9°F28.8°C 57.7°F14.3°C 41% 6.3 mph S10.1 kmh S 13.1 mph21.1 kmh 30.14 in1020.7 mb 0.00 in0.0 mm 0.00 in0.0 mm 0.00 in0.0 mm
02:05 PM 84.1°F28.9°C 57.2°F14.0°C 40% 6.9 mph SW11.1 kmh SW 11.3 mph18.2 kmh 30.14 in1020.7 mb 0.00 in0.0 mm 0.00 in0.0 mm 0.00 in0.0 mm
02:10 PM 83.9°F28.8°C 57.0°F13.9°C 40% 8.1 mph WSW13.0 kmh WSW 14.6 mph23.5 kmh 30.14 in1020.7 mb 0.00 in0.0 mm 0.00 in0.0 mm 0.00 in0.0 mm
02:15 PM 84.3°F29.1°C 57.3°F14.1°C 40% 8.4 mph WSW13.5 kmh WSW 14.6 mph23.5 kmh 30.14 in1020.7 mb 0.00 in0.0 mm 0.00 in0.0 mm 0.00 in0.0 mm
02:20 PM 84.3°F29.1°C 57.3°F14.1°C 40% 6.2 mph SW10.0 kmh SW 10.7 mph17.2 kmh 30.14 in1020.7 mb 0.00 in0.0 mm 0.00 in0.0 mm 0.00 in0.0 mm
02:25 PM 84.5°F29.2°C 57.5°F14.2°C 40% 5.9 mph SW9.5 kmh SW 10.1 mph16.3 kmh 30.14 in1020.7 mb 0.00 in0.0 mm 0.00 in0.0 mm 0.00 in0.0 mm
02:30 PM 84.7°F29.3°C 57.7°F14.3°C 40% 5.1 mph SW8.2 kmh SW 10.1 mph16.3 kmh 30.14 in1020.7 mb 0.00 in0.0 mm 0.00 in0.0 mm 0.00 in0.0 mm
02:35 PM 84.7°F29.3°C 57.7°F14.3°C 40% 3.7 mph SW6.0 kmh SW 4.8 mph7.7 kmh 30.14 in1020.7 mb 0.00 in0.0 mm 0.00 in0.0 mm 0.00 in0.0 mm
02:40 PM 84.7°F29.3°C 57.7°F14.3°C 40% 3.6 mph SSW5.8 kmh SSW 7.1 mph11.4 kmh 30.14 in1020.7 mb 0.00 in0.0 mm 0.00 in0.0 mm 0.00 in0.0 mm
02:45 PM 84.5°F29.2°C 57.5°F14.2°C 40% 4.1 mph SSW6.6 kmh SSW 8.0 mph12.9 kmh 30.14 in1020.7 mb 0.00 in0.0 mm 0.00 in0.0 mm 0.00 in0.0 mm
02:50 PM 84.7°F29.3°C 57.7°F14.3°C 40% 4.1 mph SW6.6 kmh SW 8.0 mph12.9 kmh 30.14 in1020.7 mb 0.00 in0.0 mm 0.00 in0.0 mm 0.00 in0.0 mm
02:55 PM 84.8°F29.3°C 57.1°F13.9°C 39% 5.1 mph SW8.2 kmh SW 12.2 mph19.6 kmh 30.14 in1020.7 mb 0.00 in0.0 mm 0.00 in0.0 mm 0.00 in0.0 mm
03:00 PM 84.8°F29.3°C 57.1°F13.9°C 39% 7.1 mph SSW11.4 kmh SSW 12.2 mph19.6 kmh 30.14 in1020.7 mb 0.00 in0.0 mm 0.00 in0.0 mm 0.00 in0.0 mm
03:05 PM 85.0°F29.4°C 57.3°F14.1°C 39% 6.9 mph SW11.1 kmh SW 10.4 mph16.7 kmh 30.14 in1020.7 mb 0.00 in0.0 mm 0.00 in0.0 mm 0.00 in0.0 mm
03:10 PM 85.2°F29.6°C 57.4°F14.1°C 39% 6.5 mph SW10.5 kmh SW 11.9 mph19.2 kmh 30.11 in1019.6 mb 0.00 in0.0 mm 0.00 in0.0 mm 0.00 in0.0 mm
03:15 PM 85.0°F29.4°C 57.3°F14.1°C 39% 6.1 mph SSW9.8 kmh SSW 11.9 mph19.2 kmh 30.14 in1020.7 mb 0.00 in0.0 mm 0.00 in0.0 mm 0.00 in0.0 mm
03:20 PM 85.2°F29.6°C 57.4°F14.1°C 39% 5.5 mph SSW8.9 kmh SSW 11.9 mph19.2 kmh 30.14 in1020.7 mb 0.00 in0.0 mm 0.00 in0.0 mm 0.00 in0.0 mm
03:25 PM 85.2°F29.6°C 56.7°F13.7°C 38% 5.3 mph SSW8.5 kmh SSW 11.3 mph18.2 kmh 30.14 in1020.7 mb 0.00 in0.0 mm 0.00 in0.0 mm 0.00 in0.0 mm
03:30 PM 85.0°F29.4°C 56.6°F13.7°C 38% 6.0 mph SSW9.7 kmh SSW 11.3 mph18.2 kmh 30.11 in1019.6 mb 0.00 in0.0 mm 0.00 in0.0 mm 0.00 in0.0 mm
03:35 PM 84.7°F29.3°C 57.0°F13.9°C 39% 6.5 mph SSW10.5 kmh SSW 9.2 mph14.8 kmh 30.11 in1019.6 mb 0.00 in0.0 mm 0.00 in0.0 mm 0.00 in0.0 mm
03:40 PM 84.8°F29.3°C 56.4°F13.6°C 38% 7.4 mph SW11.9 kmh SW 11.3 mph18.2 kmh 30.11 in1019.6 mb 0.00 in0.0 mm 0.00 in0.0 mm 0.00 in0.0 mm
03:45 PM 84.7°F29.3°C 57.0°F13.9°C 39% 6.9 mph SW11.1 kmh SW 11.3 mph18.2 kmh 30.11 in1019.6 mb 0.00 in0.0 mm 0.00 in0.0 mm 0.00 in0.0 mm
03:50 PM 84.5°F29.2°C 56.8°F13.8°C 39% 6.5 mph SW10.5 kmh SW 9.5 mph15.3 kmh 30.11 in1019.6 mb 0.00 in0.0 mm 0.00 in0.0 mm 0.00 in0.0 mm
03:55 PM 84.3°F29.1°C 56.6°F13.7°C 39% 7.1 mph SW11.4 kmh SW 11.3 mph18.2 kmh 30.11 in1019.6 mb 0.00 in0.0 mm 0.00 in0.0 mm 0.00 in0.0 mm
04:00 PM 84.1°F28.9°C 56.5°F13.6°C 39% 7.3 mph SW11.7 kmh SW 11.3 mph18.2 kmh 30.11 in1019.6 mb 0.00 in0.0 mm 0.00 in0.0 mm 0.00 in0.0 mm
04:05 PM 84.1°F28.9°C 55.8°F13.2°C 38% 5.8 mph SW9.3 kmh SW 9.8 mph15.8 kmh 30.11 in1019.6 mb 0.00 in0.0 mm 0.00 in0.0 mm 0.00 in0.0 mm
04:10 PM 83.9°F28.8°C 56.3°F13.5°C 39% 5.5 mph SW8.9 kmh SW 9.8 mph15.8 kmh 30.11 in1019.6 mb 0.00 in0.0 mm 0.00 in0.0 mm 0.00 in0.0 mm
04:15 PM 84.1°F28.9°C 55.8°F13.2°C 38% 5.0 mph SW8.0 kmh SW 7.7 mph12.4 kmh 30.11 in1019.6 mb 0.00 in0.0 mm 0.00 in0.0 mm 0.00 in0.0 mm
04:20 PM 83.8°F28.8°C 55.4°F13.0°C 38% 6.9 mph SW11.1 kmh SW 13.7 mph22.0 kmh 30.11 in1019.6 mb 0.00 in0.0 mm 0.00 in0.0 mm 0.00 in0.0 mm
04:25 PM 83.6°F28.7°C 56.0°F13.3°C 39% 7.8 mph SW12.6 kmh SW 13.7 mph22.0 kmh 30.11 in1019.6 mb 0.00 in0.0 mm 0.00 in0.0 mm 0.00 in0.0 mm
04:30 PM 83.4°F28.6°C 55.8°F13.2°C 39% 6.7 mph SW10.8 kmh SW 11.6 mph18.7 kmh 30.11 in1019.6 mb 0.00 in0.0 mm 0.00 in0.0 mm 0.00 in0.0 mm
04:35 PM 83.2°F28.4°C 55.0°F12.8°C 38% 5.8 mph SW9.3 kmh SW 11.6 mph18.7 kmh 30.11 in1019.6 mb 0.00 in0.0 mm 0.00 in0.0 mm 0.00 in0.0 mm
04:40 PM 83.6°F28.7°C 55.3°F12.9°C 38% 4.9 mph SSW7.9 kmh SSW 11.6 mph18.7 kmh 30.11 in1019.6 mb 0.00 in0.0 mm 0.00 in0.0 mm 0.00 in0.0 mm
04:45 PM 83.8°F28.8°C 55.4°F13.0°C 38% 5.3 mph S8.5 kmh S 8.3 mph13.4 kmh 30.11 in1019.6 mb 0.00 in0.0 mm 0.00 in0.0 mm 0.00 in0.0 mm
04:50 PM 83.6°F28.7°C 55.3°F12.9°C 38% 6.7 mph S10.8 kmh S 8.6 mph13.8 kmh 30.11 in1019.6 mb 0.00 in0.0 mm 0.00 in0.0 mm 0.00 in0.0 mm
04:55 PM 83.6°F28.7°C 55.3°F12.9°C 38% 6.5 mph SSW10.5 kmh SSW 9.8 mph15.8 kmh 30.11 in1019.6 mb 0.00 in0.0 mm 0.00 in0.0 mm 0.00 in0.0 mm
05:00 PM 83.4°F28.6°C 55.1°F12.8°C 38% 4.8 mph SW7.7 kmh SW 9.8 mph15.8 kmh 30.11 in1019.6 mb 0.00 in0.0 mm 0.00 in0.0 mm 0.00 in0.0 mm
05:05 PM 83.4°F28.6°C 55.1°F12.8°C 38% 5.9 mph SSW9.5 kmh SSW 10.1 mph16.3 kmh 30.11 in1019.6 mb 0.00 in0.0 mm 0.00 in0.0 mm 0.00 in0.0 mm
05:10 PM 83.0°F28.3°C 54.8°F12.7°C 38% 6.8 mph SSW10.9 kmh SSW 10.1 mph16.3 kmh 30.11 in1019.6 mb 0.00 in0.0 mm 0.00 in0.0 mm 0.00 in0.0 mm
05:15 PM 83.0°F28.3°C 54.8°F12.7°C 38% 6.4 mph SSW10.3 kmh SSW 9.8 mph15.8 kmh 30.11 in1019.6 mb 0.00 in0.0 mm 0.00 in0.0 mm 0.00 in0.0 mm
05:20 PM 83.0°F28.3°C 54.8°F12.7°C 38% 6.8 mph SSW10.9 kmh SSW 9.8 mph15.8 kmh 30.11 in1019.6 mb 0.00 in0.0 mm 0.00 in0.0 mm 0.00 in0.0 mm
05:25 PM 82.8°F28.2°C 55.4°F13.0°C 39% 6.1 mph SSW9.8 kmh SSW 9.8 mph15.8 kmh 30.11 in1019.6 mb 0.00 in0.0 mm 0.00 in0.0 mm 0.00 in0.0 mm
05:30 PM 82.7°F28.2°C 55.2°F12.9°C 39% 6.5 mph SSW10.5 kmh SSW 9.8 mph15.8 kmh 30.11 in1019.6 mb 0.00 in0.0 mm 0.00 in0.0 mm 0.00 in0.0 mm
05:35 PM 82.5°F28.1°C 55.0°F12.8°C 39% 6.1 mph S9.8 kmh S 9.5 mph15.3 kmh 30.11 in1019.6 mb 0.00 in0.0 mm 0.00 in0.0 mm 0.00 in0.0 mm
05:40 PM 82.3°F27.9°C 54.9°F12.7°C 39% 5.8 mph SSW9.3 kmh SSW 8.0 mph12.9 kmh 30.11 in1019.6 mb 0.00 in0.0 mm 0.00 in0.0 mm 0.00 in0.0 mm
05:45 PM 82.1°F27.8°C 54.7°F12.6°C 39% 5.8 mph SSW9.3 kmh SSW 8.3 mph13.4 kmh 30.08 in1018.6 mb 0.00 in0.0 mm 0.00 in0.0 mm 0.00 in0.0 mm
05:50 PM 82.1°F27.8°C 54.7°F12.6°C 39% 5.7 mph SSW9.2 kmh SSW 10.4 mph16.7 kmh 30.08 in1018.6 mb 0.00 in0.0 mm 0.00 in0.0 mm 0.00 in0.0 mm
05:55 PM 81.8°F27.7°C 54.4°F12.4°C 39% 4.9 mph SSW7.9 kmh SSW 10.4 mph16.7 kmh 30.08 in1018.6 mb 0.00 in0.0 mm 0.00 in0.0 mm 0.00 in0.0 mm
06:00 PM 81.8°F27.7°C 54.4°F12.4°C 39% 4.5 mph S7.2 kmh S 8.0 mph12.9 kmh 30.08 in1018.6 mb 0.00 in0.0 mm 0.00 in0.0 mm 0.00 in0.0 mm
06:05 PM 81.2°F27.3°C 53.9°F12.2°C 39% 5.4 mph S8.7 kmh S 8.9 mph14.3 kmh 30.08 in1018.6 mb 0.00 in0.0 mm 0.00 in0.0 mm 0.00 in0.0 mm
06:10 PM 80.9°F27.2°C 53.6°F12.0°C 39% 5.9 mph S9.5 kmh S 8.9 mph14.3 kmh 30.08 in1018.6 mb 0.00 in0.0 mm 0.00 in0.0 mm 0.00 in0.0 mm
06:15 PM 80.7°F27.1°C 53.4°F11.9°C 39% 6.2 mph S10.0 kmh S 9.5 mph15.3 kmh 30.08 in1018.6 mb 0.00 in0.0 mm 0.00 in0.0 mm 0.00 in0.0 mm
06:20 PM 80.3°F26.8°C 53.1°F11.7°C 39% 7.1 mph S11.4 kmh S 11.3 mph18.2 kmh 30.08 in1018.6 mb 0.00 in0.0 mm 0.00 in0.0 mm 0.00 in0.0 mm
06:25 PM 80.0°F26.7°C 53.5°F11.9°C 40% 7.3 mph SW11.7 kmh SW 11.3 mph18.2 kmh 30.08 in1018.6 mb 0.00 in0.0 mm 0.00 in0.0 mm 0.00 in0.0 mm
06:30 PM 79.4°F26.3°C 53.0°F11.7°C 40% 6.4 mph WSW10.3 kmh WSW 10.4 mph16.7 kmh 30.08 in1018.6 mb 0.00 in0.0 mm 0.00 in0.0 mm 0.00 in0.0 mm
06:35 PM 78.9°F26.1°C 53.8°F12.1°C 42% 6.8 mph W10.9 kmh W 8.3 mph13.4 kmh 30.08 in1018.6 mb 0.00 in0.0 mm 0.00 in0.0 mm 0.00 in0.0 mm
06:40 PM 78.5°F25.8°C 53.5°F11.9°C 42% 7.4 mph W11.9 kmh W 10.7 mph17.2 kmh 30.08 in1018.6 mb 0.00 in0.0 mm 0.00 in0.0 mm 0.00 in0.0 mm
06:45 PM 77.8°F25.4°C 53.5°F11.9°C 43% 7.1 mph W11.4 kmh W 10.7 mph17.2 kmh 30.08 in1018.6 mb 0.00 in0.0 mm 0.00 in0.0 mm 0.00 in0.0 mm
06:50 PM 76.4°F24.7°C 54.1°F12.3°C 46% 5.9 mph W9.5 kmh W 8.0 mph12.9 kmh 30.08 in1018.6 mb 0.00 in0.0 mm 0.00 in0.0 mm 0.00 in0.0 mm
06:55 PM 75.7°F24.3°C 54.6°F12.6°C 48% 4.1 mph W6.6 kmh W 7.7 mph12.4 kmh 30.08 in1018.6 mb 0.00 in0.0 mm 0.00 in0.0 mm 0.00 in0.0 mm
07:00 PM 74.8°F23.8°C 55.4°F13.0°C 51% 6.2 mph WSW10.0 kmh WSW 11.3 mph18.2 kmh 30.08 in1018.6 mb 0.00 in0.0 mm 0.00 in0.0 mm 0.00 in0.0 mm
07:05 PM 74.4°F23.6°C 55.1°F12.8°C 51% 7.1 mph WSW11.4 kmh WSW 11.3 mph18.2 kmh 30.08 in1018.6 mb 0.00 in0.0 mm 0.00 in0.0 mm 0.00 in0.0 mm
07:10 PM 73.3°F22.9°C 55.7°F13.2°C 54% 6.3 mph WSW10.1 kmh WSW 9.8 mph15.8 kmh 30.08 in1018.6 mb 0.00 in0.0 mm 0.00 in0.0 mm 0.00 in0.0 mm
07:15 PM 72.6°F22.6°C 55.5°F13.1°C 55% 6.4 mph WSW10.3 kmh WSW 8.0 mph12.9 kmh 30.08 in1018.6 mb 0.00 in0.0 mm 0.00 in0.0 mm 0.00 in0.0 mm
07:20 PM 72.1°F22.3°C 55.5°F13.1°C 56% 6.2 mph W10.0 kmh W 8.0 mph12.9 kmh 30.08 in1018.6 mb 0.00 in0.0 mm 0.00 in0.0 mm 0.00 in0.0 mm
07:25 PM 71.5°F21.9°C 55.5°F13.1°C 57% 5.5 mph W8.9 kmh W 7.4 mph11.9 kmh 30.08 in1018.6 mb 0.00 in0.0 mm 0.00 in0.0 mm 0.00 in0.0 mm
07:30 PM 71.2°F21.8°C 55.1°F12.8°C 57% 4.7 mph WSW7.6 kmh WSW 5.4 mph8.7 kmh 30.08 in1018.6 mb 0.00 in0.0 mm 0.00 in0.0 mm 0.00 in0.0 mm
07:35 PM 70.8°F21.6°C 55.3°F12.9°C 58% 4.6 mph WSW7.4 kmh WSW 7.4 mph11.9 kmh 30.08 in1018.6 mb 0.00 in0.0 mm 0.00 in0.0 mm 0.00 in0.0 mm
07:40 PM 70.4°F21.3°C 55.4°F13.0°C 59% 4.6 mph WSW7.4 kmh WSW 7.4 mph11.9 kmh 30.08 in1018.6 mb 0.00 in0.0 mm 0.00 in0.0 mm 0.00 in0.0 mm
07:45 PM 70.3°F21.3°C 55.2°F12.9°C 59% 4.6 mph WSW7.4 kmh WSW 6.5 mph10.5 kmh 30.08 in1018.6 mb 0.00 in0.0 mm 0.00 in0.0 mm 0.00 in0.0 mm
07:50 PM 69.9°F21.1°C 55.4°F13.0°C 60% 4.9 mph WSW7.9 kmh WSW 7.7 mph12.4 kmh 30.08 in1018.6 mb 0.00 in0.0 mm 0.00 in0.0 mm 0.00 in0.0 mm
07:55 PM 69.5°F20.8°C 55.0°F12.8°C 60% 5.6 mph WSW9.0 kmh WSW 9.8 mph15.8 kmh 30.08 in1018.6 mb 0.00 in0.0 mm 0.00 in0.0 mm 0.00 in0.0 mm
08:00 PM 69.3°F20.7°C 55.3°F12.9°C 61% 5.8 mph WSW9.3 kmh WSW 9.8 mph15.8 kmh 30.08 in1018.6 mb 0.00 in0.0 mm 0.00 in0.0 mm 0.00 in0.0 mm
08:05 PM 69.2°F20.7°C 55.6°F13.1°C 62% 5.0 mph WSW8.0 kmh WSW 8.6 mph13.8 kmh 30.08 in1018.6 mb 0.00 in0.0 mm 0.00 in0.0 mm 0.00 in0.0 mm
08:10 PM 69.0°F20.6°C 55.4°F13.0°C 62% 4.1 mph WSW6.6 kmh WSW 6.2 mph10.0 kmh 30.08 in1018.6 mb 0.00 in0.0 mm 0.00 in0.0 mm 0.00 in0.0 mm
08:15 PM 68.8°F20.4°C 55.7°F13.2°C 63% 4.1 mph WSW6.6 kmh WSW 6.2 mph10.0 kmh 30.08 in1018.6 mb 0.00 in0.0 mm 0.00 in0.0 mm 0.00 in0.0 mm
08:20 PM 68.6°F20.3°C 56.0°F13.3°C 64% 5.5 mph WSW8.9 kmh WSW 10.4 mph16.7 kmh 30.08 in1018.6 mb 0.00 in0.0 mm 0.00 in0.0 mm 0.00 in0.0 mm
08:25 PM 68.4°F20.2°C 56.2°F13.4°C 65% 6.5 mph W10.5 kmh W 10.4 mph16.7 kmh 30.08 in1018.6 mb 0.00 in0.0 mm 0.00 in0.0 mm 0.00 in0.0 mm
08:30 PM 68.3°F20.2°C 56.0°F13.3°C 65% 5.8 mph W9.3 kmh W 8.3 mph13.4 kmh 30.08 in1018.6 mb 0.00 in0.0 mm 0.00 in0.0 mm 0.00 in0.0 mm
08:35 PM 68.3°F20.2°C 56.5°F13.6°C 66% 5.2 mph W8.4 kmh W 8.6 mph13.8 kmh 30.08 in1018.6 mb 0.00 in0.0 mm 0.00 in0.0 mm 0.00 in0.0 mm
08:40 PM 68.1°F20.1°C 56.7°F13.7°C 67% 6.0 mph W9.7 kmh W 9.2 mph14.8 kmh 30.08 in1018.6 mb 0.00 in0.0 mm 0.00 in0.0 mm 0.00 in0.0 mm
08:45 PM 68.1°F20.1°C 56.7°F13.7°C 67% 6.3 mph W10.1 kmh W 9.2 mph14.8 kmh 30.08 in1018.6 mb 0.00 in0.0 mm 0.00 in0.0 mm 0.00 in0.0 mm
08:50 PM 67.9°F19.9°C 56.5°F13.6°C 67% 5.3 mph W8.5 kmh W 7.1 mph11.4 kmh 30.08 in1018.6 mb 0.00 in0.0 mm 0.00 in0.0 mm 0.00 in0.0 mm
08:55 PM 67.9°F19.9°C 57.0°F13.9°C 68% 5.0 mph W8.0 kmh W 7.1 mph11.4 kmh 30.08 in1018.6 mb 0.00 in0.0 mm 0.00 in0.0 mm 0.00 in0.0 mm
09:00 PM 67.7°F19.8°C 56.8°F13.8°C 68% 4.9 mph W7.9 kmh W 7.4 mph11.9 kmh 30.08 in1018.6 mb 0.00 in0.0 mm 0.00 in0.0 mm 0.00 in0.0 mm
09:05 PM 67.7°F19.8°C 56.8°F13.8°C 68% 6.0 mph WSW9.7 kmh WSW 10.1 mph16.3 kmh 30.08 in1018.6 mb 0.00 in0.0 mm 0.00 in0.0 mm 0.00 in0.0 mm
09:10 PM 67.7°F19.8°C 57.2°F14.0°C 69% 6.1 mph WSW9.8 kmh WSW 10.1 mph16.3 kmh 30.08 in1018.6 mb 0.00 in0.0 mm 0.00 in0.0 mm 0.00 in0.0 mm
09:15 PM 67.6°F19.8°C 57.0°F13.9°C 69% 4.4 mph W7.1 kmh W 5.4 mph8.7 kmh 30.08 in1018.6 mb 0.00 in0.0 mm 0.00 in0.0 mm 0.00 in0.0 mm
09:20 PM 67.4°F19.7°C 56.8°F13.8°C 69% 4.1 mph WSW6.6 kmh WSW 5.7 mph9.2 kmh 30.08 in1018.6 mb 0.00 in0.0 mm 0.00 in0.0 mm 0.00 in0.0 mm
09:25 PM 67.4°F19.7°C 56.8°F13.8°C 69% 4.8 mph W7.7 kmh W 7.7 mph12.4 kmh 30.08 in1018.6 mb 0.00 in0.0 mm 0.00 in0.0 mm 0.00 in0.0 mm
09:30 PM 67.2°F19.6°C 56.7°F13.7°C 69% 5.2 mph W8.4 kmh W 7.7 mph12.4 kmh 30.08 in1018.6 mb 0.00 in0.0 mm 0.00 in0.0 mm 0.00 in0.0 mm
09:35 PM 67.0°F19.4°C 56.9°F13.8°C 70% 4.7 mph W7.6 kmh W 6.2 mph10.0 kmh 30.08 in1018.6 mb 0.00 in0.0 mm 0.00 in0.0 mm 0.00 in0.0 mm
09:40 PM 67.0°F19.4°C 56.9°F13.8°C 70% 4.1 mph WSW6.6 kmh WSW 6.2 mph10.0 kmh 30.08 in1018.6 mb 0.00 in0.0 mm 0.00 in0.0 mm 0.00 in0.0 mm
09:45 PM 67.0°F19.4°C 56.9°F13.8°C 70% 4.3 mph WSW6.9 kmh WSW 6.2 mph10.0 kmh 30.08 in1018.6 mb 0.00 in0.0 mm 0.00 in0.0 mm 0.00 in0.0 mm
09:50 PM 66.8°F19.3°C 57.1°F13.9°C 71% 3.7 mph WSW6.0 kmh WSW 5.7 mph9.2 kmh 30.08 in1018.6 mb 0.00 in0.0 mm 0.00 in0.0 mm 0.00 in0.0 mm
09:55 PM 66.7°F19.3°C 56.9°F13.8°C 71% 3.0 mph W4.8 kmh W 4.8 mph7.7 kmh 30.08 in1018.6 mb 0.00 in0.0 mm 0.00 in0.0 mm 0.00 in0.0 mm
10:00 PM 66.7°F19.3°C 56.9°F13.8°C 71% 4.2 mph WSW6.8 kmh WSW 5.7 mph9.2 kmh 30.08 in1018.6 mb 0.00 in0.0 mm 0.00 in0.0 mm 0.00 in0.0 mm
10:05 PM 66.5°F19.2°C 56.8°F13.8°C 71% 5.2 mph WSW8.4 kmh WSW 7.4 mph11.9 kmh 30.08 in1018.6 mb 0.00 in0.0 mm 0.00 in0.0 mm 0.00 in0.0 mm
10:10 PM 66.5°F19.2°C 57.2°F14.0°C 72% 6.2 mph WSW10.0 kmh WSW 7.4 mph11.9 kmh 30.08 in1018.6 mb 0.00 in0.0 mm 0.00 in0.0 mm 0.00 in0.0 mm
10:15 PM 66.3°F19.1°C 57.0°F13.9°C 72% 6.1 mph WSW9.8 kmh WSW 8.0 mph12.9 kmh 30.08 in1018.6 mb 0.00 in0.0 mm 0.00 in0.0 mm 0.00 in0.0 mm
10:20 PM 66.3°F19.1°C 57.0°F13.9°C 72% 5.8 mph WSW9.3 kmh WSW 8.6 mph13.8 kmh 30.08 in1018.6 mb 0.00 in0.0 mm 0.00 in0.0 mm 0.00 in0.0 mm
10:25 PM 66.3°F19.1°C 57.0°F13.9°C 72% 6.3 mph WSW10.1 kmh WSW 8.6 mph13.8 kmh 30.08 in1018.6 mb 0.00 in0.0 mm 0.00 in0.0 mm 0.00 in0.0 mm
10:30 PM 66.3°F19.1°C 57.0°F13.9°C 72% 6.7 mph WSW10.8 kmh WSW 8.0 mph12.9 kmh 30.08 in1018.6 mb 0.00 in0.0 mm 0.00 in0.0 mm 0.00 in0.0 mm
10:35 PM 66.3°F19.1°C 57.0°F13.9°C 72% 6.3 mph WSW10.1 kmh WSW 8.0 mph12.9 kmh 30.08 in1018.6 mb 0.00 in0.0 mm 0.00 in0.0 mm 0.00 in0.0 mm
10:40 PM 66.1°F18.9°C 57.2°F14.0°C 73% 6.2 mph WSW10.0 kmh WSW 8.3 mph13.4 kmh 30.08 in1018.6 mb 0.00 in0.0 mm 0.00 in0.0 mm 0.00 in0.0 mm
10:45 PM 66.1°F18.9°C 57.2°F14.0°C 73% 5.3 mph WSW8.5 kmh WSW 8.3 mph13.4 kmh 30.08 in1018.6 mb 0.00 in0.0 mm 0.00 in0.0 mm 0.00 in0.0 mm
10:50 PM 65.9°F18.8°C 57.4°F14.1°C 74% 4.5 mph WSW7.2 kmh WSW 8.3 mph13.4 kmh 30.08 in1018.6 mb 0.00 in0.0 mm 0.00 in0.0 mm 0.00 in0.0 mm
10:55 PM 65.9°F18.8°C 57.4°F14.1°C 74% 5.2 mph W8.4 kmh W 8.3 mph13.4 kmh 30.08 in1018.6 mb 0.00 in0.0 mm 0.00 in0.0 mm 0.00 in0.0 mm
11:00 PM 65.9°F18.8°C 57.4°F14.1°C 74% 6.1 mph W9.8 kmh W 11.3 mph18.2 kmh 30.08 in1018.6 mb 0.00 in0.0 mm 0.00 in0.0 mm 0.00 in0.0 mm
11:05 PM 65.8°F18.8°C 57.6°F14.2°C 75% 6.0 mph W9.7 kmh W 11.3 mph18.2 kmh 30.08 in1018.6 mb 0.00 in0.0 mm 0.00 in0.0 mm 0.00 in0.0 mm
11:10 PM 65.8°F18.8°C 57.6°F14.2°C 75% 5.6 mph W9.0 kmh W 11.3 mph18.2 kmh 30.08 in1018.6 mb 0.00 in0.0 mm 0.00 in0.0 mm 0.00 in0.0 mm
11:15 PM 65.8°F18.8°C 57.6°F14.2°C 75% 5.5 mph W8.9 kmh W 7.4 mph11.9 kmh 30.05 in1017.6 mb 0.00 in0.0 mm 0.00 in0.0 mm 0.00 in0.0 mm
11:20 PM 65.6°F18.7°C 57.8°F14.3°C 76% 4.6 mph W7.4 kmh W 7.4 mph11.9 kmh 30.05 in1017.6 mb 0.00 in0.0 mm 0.00 in0.0 mm 0.00 in0.0 mm
11:25 PM 65.6°F18.7°C 57.8°F14.3°C 76% 4.1 mph W6.6 kmh W 6.2 mph10.0 kmh 30.05 in1017.6 mb 0.00 in0.0 mm 0.00 in0.0 mm 0.00 in0.0 mm
11:30 PM 65.6°F18.7°C 57.8°F14.3°C 76% 4.4 mph W7.1 kmh W 6.5 mph10.5 kmh 30.05 in1017.6 mb 0.00 in0.0 mm 0.00 in0.0 mm 0.00 in0.0 mm
11:35 PM 65.4°F18.6°C 58.0°F14.4°C 77% 4.8 mph WSW7.7 kmh WSW 6.5 mph10.5 kmh 30.05 in1017.6 mb 0.00 in0.0 mm 0.00 in0.0 mm 0.00 in0.0 mm
11:40 PM 65.4°F18.6°C 58.0°F14.4°C 77% 5.3 mph WSW8.5 kmh WSW 7.1 mph11.4 kmh 30.05 in1017.6 mb 0.00 in0.0 mm 0.00 in0.0 mm 0.00 in0.0 mm
11:45 PM 65.4°F18.6°C 58.0°F14.4°C 77% 5.4 mph WSW8.7 kmh WSW 7.4 mph11.9 kmh 30.08 in1018.6 mb 0.00 in0.0 mm 0.00 in0.0 mm 0.00 in0.0 mm
11:50 PM 65.4°F18.6°C 58.3°F14.6°C 78% 4.8 mph WSW7.7 kmh WSW 7.4 mph11.9 kmh 30.08 in1018.6 mb 0.00 in0.0 mm 0.00 in0.0 mm 0.00 in0.0 mm
11:55 PM 65.2°F18.4°C 58.2°F14.6°C 78% 5.6 mph WSW9.0 kmh WSW 9.5 mph15.3 kmh 30.08 in1018.6 mb 0.00 in0.0 mm 0.00 in0.0 mm 0.00 in0.0 mm